Aviation Digital Data Service (ADDS)

Output produced by METARs form (2228 UTC 01 August 2014)
found at http://aviationweather.gov/adds/metars/
 
KFRG 012153Z 21009KT 10SM CLR 24/19 A3021 RMK AO2 SLP231 T02390194
KISP 012156Z 19006KT 10SM FEW038 SCT090 BKN130 OVC250 25/18 A3021 RMK AO2 RAE29 SLP228 P0000 T02500178
KISP 011951Z 0120/0218 17010KT P6SM FEW015 BKN150 
     FM020000 17006KT P6SM BKN120 
     FM020600 13005KT P6SM SCT050 BKN100 
     FM020800 07005KT 6SM -SHRA BKN050 
     FM021100 06008KT 5SM -SHRA BR SCT015 BKN030
       
KJFK 012151Z 19009KT 10SM FEW011 SCT042 BKN100 OVC180 24/21 A3022 RMK AO2 SLP232 T02390211 $
KJFK 011951Z 0120/0224 16010KT P6SM SCT040 BKN120 
     TEMPO 0120/0121 6SM -SHRA BKN010 BKN035 
     FM020200 16006KT P6SM BKN120 
     FM020600 11005KT P6SM SCT050 BKN100 
     FM020800 06007KT 6SM -SHRA BKN050 
     FM021100 05012KT 5SM -SHRA BR SCT015 BKN025 
     FM022000 08010KT P6SM BKN025
       
KBDR 012152Z 21007KT 10SM FEW120 25/21 A3022 RMK AO2 SLP233 T02500206
KBDR 011951Z 0120/0218 17010KT P6SM FEW050 BKN200 
     FM020000 17006KT P6SM BKN120 
     FM020600 13005KT P6SM SCT050 BKN100 
     FM020800 09005KT 6SM -SHRA BKN050 
     FM021100 07008KT 5SM -SHRA BR SCT015 BKN030